Terminal Aerodrome Forecast
Issued by NWS

Home | Current Version | Previous Version | Text Only | Print | Product List | Glossary On
Versions: 1 2 3 4 5 6 7 8 9 10 11 12 13 14 15
000
FTUS46 KSEW 300726 AAA
TAFBFI
TAF AMD
KBFI 300726Z 3007/3106 20008KT P6SM FEW040
     FM300900 20007KT P6SM OVC014
     FM302100 20006KT P6SM VCSH OVC024=

USA.gov is the U.S. government's official web portal to all federal, state and local government web resources and services.